Pagrindinis puslapis
METAR-TAF:

METAR-TAF

Oro uostai :

Antverpenas, Belgija

platuma: 51-12N, ilguma: 004-28E, Aukštis: 12 m

Dabartinis oras

Ataskaita buvo paskelbta 24 minutes, ne 05:20 UTC
Vėjas 2 kt nuo kintamojo kryptimis
Temperatūra 20°C
Drėgmė 78%
Slėgis 1011 hPa
Matomumas 10 km arba daugiau
nėra debesų žemiau 1500 m ir nėra kamuolinių lietaus debesų

METAR: EBAW 200520Z VRB02KT CAVOK 20/16 Q1011 NOSIG

Laikas: 07:44 (05:44 UTC)

Prognozė

Ataskaita buvo paskelbta 34 minutes, ne 05:10 UTC
Prognozė galioja nuo 20 metu 06 UTC su 20 metu 15 UTC
Vėjas 6 kt iš Pietų/Pietryčių
Matomumas 10 km arba daugiau
nėra debesų žemiau 1500 m ir nėra kamuolinių lietaus debesų
Tikimybė 30% :
Laikinai
nuo 20 metu 14 UTC su 20 metu 15 UTC
Vėjas 15 kt nuo kintamojo kryptimis su gūsio iki 25 kt
Matomumas: 4000 m
Su prošvaistėmis ne aukštis 4000 ft, Liūtiniai kamuoliniai debesys.
lietus, perkūnija, lietus,

TAF: EBAW 200510Z 2006/2015 15006KT CAVOK PROB30 TEMPO 2014/2015 VRB15G25KT 4000 SHRA TSRA BKN040CB

Orai ataskaitas ir orų prognozės (METAR, TAF).

turimą stotys yra geltonos ir raudonos taškus žemėlapyje.

Perkelti pele per norėdami pamatyti stoties vardą.

Tada spustelėkite, norėdami matyti oro stebėjimo ir prognozės.

Norėdami pakeisti žemėlapį: spustelėkite ant žalios mygtukų su juodo kryžiaus žemyn,; žalią mygtuką su brūkšneliu, jei norite nutolinti; arba žalių rodyklių gretimoms žemėlapius.


METAR-TAF: